createdAt,value
2023-05-24T00:00:23.600Z,97.40
2023-05-24T00:02:50.474Z,97.30
2023-05-24T00:05:18.933Z,97.40
2023-05-24T00:07:45.794Z,97.70
2023-05-24T00:10:12.656Z,97.10
2023-05-24T00:12:39.397Z,97.40
2023-05-24T00:15:06.303Z,97.00
2023-05-24T00:17:34.827Z,97.20
2023-05-24T00:20:01.681Z,97.50
2023-05-24T00:22:28.508Z,97.90
2023-05-24T00:24:55.402Z,98.10
2023-05-24T00:27:22.106Z,98.20
2023-05-24T00:29:49.042Z,98.10
2023-05-24T00:32:15.760Z,98.20
2023-05-24T00:34:42.607Z,98.50
2023-05-24T00:37:13.017Z,98.50
2023-05-24T00:39:39.767Z,98.50
2023-05-24T00:42:06.502Z,98.30
2023-05-24T00:44:33.606Z,98.20
2023-05-24T00:47:00.463Z,98.40
2023-05-24T00:49:27.296Z,98.50
2023-05-24T00:51:54.685Z,98.70
2023-05-24T00:54:21.620Z,98.50
2023-05-24T00:56:48.452Z,98.30
2023-05-24T00:59:15.209Z,98.50
2023-05-24T01:01:42.121Z,98.00
2023-05-24T01:04:09.022Z,97.00
2023-05-24T01:06:36.988Z,96.70
2023-05-24T01:09:03.913Z,96.70
2023-05-24T01:11:31.099Z,96.70
2023-05-24T01:13:57.849Z,96.40
2023-05-24T01:16:26.146Z,96.40
2023-05-24T01:18:53.017Z,96.50
2023-05-24T01:21:19.829Z,96.40
2023-05-24T01:23:46.645Z,96.70
2023-05-24T01:26:13.368Z,96.60
2023-05-24T01:28:40.102Z,96.60
2023-05-24T01:31:06.853Z,96.80
2023-05-24T01:33:33.622Z,96.70
2023-05-24T01:36:00.554Z,96.70
2023-05-24T01:38:27.290Z,96.80
2023-05-24T01:40:54.036Z,96.90
2023-05-24T01:43:21.418Z,97.00
2023-05-24T01:45:48.250Z,97.00
2023-05-24T01:48:19.046Z,97.40
2023-05-24T01:50:46.096Z,97.30
2023-05-24T01:53:12.793Z,97.10
2023-05-24T01:55:39.597Z,97.30
2023-05-24T01:58:06.326Z,97.70
2023-05-24T02:00:33.151Z,97.70
2023-05-24T02:03:00.085Z,97.60
2023-05-24T02:05:26.962Z,97.60
2023-05-24T02:07:55.440Z,97.40
2023-05-24T02:10:23.818Z,97.30
2023-05-24T02:12:50.554Z,97.30
2023-05-24T02:15:17.365Z,97.20
2023-05-24T02:17:44.079Z,97.30
2023-05-24T02:20:11.033Z,97.20
2023-05-24T02:22:38.621Z,97.40
2023-05-24T02:25:05.355Z,97.50
2023-05-24T02:27:32.098Z,97.40
2023-05-24T02:29:58.860Z,97.30
2023-05-24T02:32:25.794Z,97.40
2023-05-24T02:34:52.705Z,97.30
2023-05-24T02:37:20.780Z,97.30
2023-05-24T02:39:47.564Z,97.50
2023-05-24T02:42:14.327Z,97.50
2023-05-24T02:44:42.833Z,97.70
2023-05-24T02:47:09.588Z,97.90
2023-05-24T02:49:36.388Z,98.20
2023-05-24T02:52:03.479Z,98.50
2023-05-24T02:54:30.558Z,98.70
2023-05-24T02:56:58.112Z,99.10
2023-05-24T02:59:25.098Z,99.20
2023-05-24T03:01:52.030Z,99.30
2023-05-24T03:04:18.839Z,99.30
2023-05-24T03:06:45.827Z,99.30
2023-05-24T03:09:13.112Z,99.30
2023-05-24T03:11:39.831Z,99.30
2023-05-24T03:14:06.856Z,99.30
2023-05-24T03:16:33.840Z,99.30
2023-05-24T03:19:00.638Z,99.40
2023-05-24T03:21:27.675Z,99.50
2023-05-24T03:23:54.475Z,99.60
2023-05-24T03:26:21.756Z,99.70
2023-05-24T03:28:50.601Z,99.90
2023-05-24T03:31:21.038Z,99.90
2023-05-24T03:33:48.542Z,99.90
2023-05-24T03:36:15.389Z,99.90
2023-05-24T03:38:42.209Z,99.90
2023-05-24T03:41:09.337Z,99.90
2023-05-24T03:43:36.166Z,99.90
2023-05-24T03:46:07.403Z,99.90
2023-05-24T03:48:34.225Z,99.90
2023-05-24T03:51:01.065Z,99.90
2023-05-24T03:53:27.908Z,99.90
2023-05-24T03:55:54.906Z,99.90
2023-05-24T03:58:22.584Z,99.90
2023-05-24T04:00:51.012Z,99.90
2023-05-24T04:03:20.111Z,99.90
2023-05-24T04:05:47.457Z,99.90
2023-05-24T04:08:15.079Z,99.90
2023-05-24T04:10:42.093Z,99.90
2023-05-24T04:13:11.409Z,99.90
2023-05-24T04:15:38.161Z,99.90
2023-05-24T04:18:05.381Z,99.90
2023-05-24T04:20:34.429Z,99.90
2023-05-24T04:23:01.290Z,99.90
2023-05-24T04:25:28.089Z,99.90
2023-05-24T04:27:56.209Z,99.90
2023-05-24T04:30:25.400Z,99.90
2023-05-24T04:32:52.241Z,99.90
2023-05-24T04:35:19.592Z,99.90
2023-05-24T04:37:48.347Z,99.90
2023-05-24T04:40:23.097Z,99.90
2023-05-24T04:42:49.927Z,99.90
2023-05-24T04:45:16.853Z,99.90
2023-05-24T04:47:43.772Z,99.90
2023-05-24T04:50:10.951Z,99.90
2023-05-24T04:52:37.846Z,99.90
2023-05-24T04:55:04.585Z,99.90
2023-05-24T04:57:31.372Z,99.90
2023-05-24T04:59:58.114Z,99.90
2023-05-24T05:02:26.617Z,99.90
2023-05-24T05:04:53.701Z,99.90
2023-05-24T05:07:20.653Z,99.90
2023-05-24T05:09:47.722Z,99.90
2023-05-24T05:12:14.456Z,99.90
2023-05-24T05:14:41.208Z,99.90
2023-05-24T05:17:08.005Z,99.90
2023-05-24T05:19:34.986Z,99.90
2023-05-24T05:22:01.766Z,99.90
2023-05-24T05:24:28.524Z,99.90
2023-05-24T05:26:55.864Z,99.90
2023-05-24T05:29:24.252Z,99.90
2023-05-24T05:31:51.487Z,99.90
2023-05-24T05:34:19.591Z,99.90
2023-05-24T05:36:46.685Z,99.90
2023-05-24T05:39:14.075Z,99.90
2023-05-24T05:41:45.645Z,99.90
2023-05-24T05:44:13.057Z,99.90
2023-05-24T05:46:39.936Z,99.90
2023-05-24T05:49:06.776Z,99.90
2023-05-24T05:51:33.511Z,99.90
2023-05-24T05:54:00.298Z,99.90
2023-05-24T05:56:27.763Z,99.90
2023-05-24T05:58:54.639Z,99.90
2023-05-24T06:01:21.442Z,99.90
2023-05-24T06:03:48.354Z,99.90
2023-05-24T06:06:15.321Z,99.90
2023-05-24T06:08:42.154Z,99.90
2023-05-24T06:11:08.923Z,99.90
2023-05-24T06:13:35.732Z,99.90
2023-05-24T06:16:02.471Z,99.90
2023-05-24T06:18:30.612Z,99.90
2023-05-24T06:20:58.573Z,99.90
2023-05-24T06:23:25.471Z,99.90
2023-05-24T06:25:52.227Z,99.90
2023-05-24T06:28:19.014Z,99.90
2023-05-24T06:30:46.075Z,99.90
2023-05-24T06:33:13.093Z,99.90
2023-05-24T06:35:39.919Z,99.90
2023-05-24T06:38:06.765Z,99.90
2023-05-24T06:40:33.560Z,99.90
2023-05-24T06:43:00.656Z,99.90
2023-05-24T06:45:27.406Z,99.90
2023-05-24T06:47:54.255Z,99.90
2023-05-24T06:50:21.125Z,99.90
2023-05-24T06:52:47.914Z,99.90
2023-05-24T06:55:14.636Z,99.90
2023-05-24T06:57:41.408Z,99.90
2023-05-24T07:00:12.570Z,99.90
2023-05-24T07:02:39.431Z,99.90
2023-05-24T07:05:06.553Z,99.90
2023-05-24T07:07:33.753Z,99.90
2023-05-24T07:10:00.518Z,99.90
2023-05-24T07:12:27.356Z,99.90
2023-05-24T07:14:56.133Z,99.90
2023-05-24T07:17:22.929Z,99.90
2023-05-24T07:19:49.756Z,99.90
2023-05-24T07:22:16.599Z,99.90
2023-05-24T07:24:43.675Z,99.90
2023-05-24T07:27:10.439Z,99.90
2023-05-24T07:29:37.679Z,99.90
2023-05-24T07:32:04.814Z,99.90
2023-05-24T07:34:32.170Z,99.90
2023-05-24T07:37:00.643Z,99.90
2023-05-24T07:39:27.452Z,99.90
2023-05-24T07:41:54.431Z,99.90
2023-05-24T07:44:21.200Z,99.90
2023-05-24T07:46:47.985Z,99.90
2023-05-24T07:49:14.705Z,99.70
2023-05-24T07:51:41.468Z,99.60
2023-05-24T07:54:08.166Z,99.60
2023-05-24T07:56:34.933Z,99.90
2023-05-24T07:59:04.907Z,99.80
2023-05-24T08:01:31.987Z,99.70
2023-05-24T08:03:58.956Z,99.60
2023-05-24T08:06:25.973Z,99.40
2023-05-24T08:08:53.469Z,99.40
2023-05-24T08:11:20.186Z,99.50
2023-05-24T08:13:47.138Z,99.40
2023-05-24T08:16:14.040Z,99.00
2023-05-24T08:18:40.904Z,99.70
2023-05-24T08:21:09.017Z,99.60
2023-05-24T08:23:36.413Z,99.50
2023-05-24T08:26:03.185Z,99.30
2023-05-24T08:28:30.033Z,98.70
2023-05-24T08:30:57.494Z,98.40
2023-05-24T08:33:24.672Z,98.30
2023-05-24T08:35:51.927Z,98.20
2023-05-24T08:38:18.696Z,98.00
2023-05-24T08:40:45.785Z,98.50
2023-05-24T08:43:12.504Z,97.80
2023-05-24T08:45:39.440Z,98.20
2023-05-24T08:48:07.138Z,97.70
2023-05-24T08:50:34.679Z,98.20
2023-05-24T08:53:04.247Z,98.50
2023-05-24T08:55:32.946Z,98.50
2023-05-24T08:58:00.042Z,98.30
2023-05-24T09:00:26.937Z,98.20
2023-05-24T09:02:53.799Z,97.40
2023-05-24T09:05:22.102Z,96.80
2023-05-24T09:07:48.850Z,96.90
2023-05-24T09:10:15.871Z,97.00
2023-05-24T09:12:42.682Z,97.20
2023-05-24T09:15:09.956Z,97.20
2023-05-24T09:17:37.376Z,97.10
2023-05-24T09:20:07.083Z,97.00
2023-05-24T09:22:37.436Z,97.20
2023-05-24T09:25:05.655Z,96.90
2023-05-24T09:27:32.404Z,97.10
2023-05-24T09:29:59.150Z,96.90
2023-05-24T09:32:26.159Z,96.90
2023-05-24T09:34:53.789Z,96.20
2023-05-24T09:37:24.163Z,96.20
2023-05-24T09:39:53.815Z,96.40
2023-05-24T09:42:24.226Z,96.60
2023-05-24T09:44:52.436Z,97.00
2023-05-24T09:47:19.263Z,96.90
2023-05-24T09:49:49.210Z,96.90
2023-05-24T09:52:16.616Z,96.50
2023-05-24T09:54:43.391Z,95.60
2023-05-24T09:57:11.270Z,95.60
2023-05-24T09:59:38.095Z,95.10
2023-05-24T10:02:04.835Z,95.00
2023-05-24T10:04:31.630Z,94.40
2023-05-24T10:06:58.469Z,95.30
2023-05-24T10:09:25.210Z,94.60
2023-05-24T10:11:51.938Z,94.00
2023-05-24T10:14:18.829Z,94.40
2023-05-24T10:16:45.720Z,93.60
2023-05-24T10:19:12.539Z,93.80
2023-05-24T10:21:40.099Z,94.60
2023-05-24T10:24:08.307Z,93.60
2023-05-24T10:26:36.233Z,93.60
2023-05-24T10:29:03.020Z,92.90
2023-05-24T10:31:29.836Z,92.80
2023-05-24T10:34:04.107Z,94.10
2023-05-24T10:36:34.410Z,94.10
2023-05-24T10:39:01.746Z,94.30
2023-05-24T10:41:28.624Z,94.60
2023-05-24T10:44:08.426Z,94.30
2023-05-24T10:46:36.764Z,94.20
2023-05-24T10:49:06.115Z,94.30
2023-05-24T10:51:33.023Z,92.90
2023-05-24T10:53:59.756Z,93.50
2023-05-24T10:56:26.895Z,92.00
2023-05-24T10:58:53.587Z,92.80
2023-05-24T11:01:20.377Z,93.40
2023-05-24T11:03:47.375Z,92.90
2023-05-24T11:06:14.858Z,93.00
2023-05-24T11:08:43.837Z,92.00
2023-05-24T11:13:40.292Z,93.10
2023-05-24T11:16:07.117Z,92.90
2023-05-24T11:18:38.623Z,93.30
2023-05-24T11:21:05.384Z,93.00
2023-05-24T11:23:32.137Z,92.70
2023-05-24T11:25:59.076Z,92.90
2023-05-24T11:28:25.920Z,91.70
2023-05-24T11:30:52.678Z,92.20
2023-05-24T11:33:20.077Z,92.50
2023-05-24T11:35:46.951Z,92.80
2023-05-24T11:38:13.705Z,92.60
2023-05-24T11:40:44.745Z,92.70
2023-05-24T11:43:11.767Z,92.50
2023-05-24T11:45:38.917Z,91.70
2023-05-24T11:48:06.548Z,92.10
2023-05-24T11:50:42.275Z,91.70
2023-05-24T11:53:16.038Z,91.80
2023-05-24T11:55:43.315Z,92.10
2023-05-24T11:58:10.165Z,91.60
2023-05-24T12:00:36.916Z,92.00
2023-05-24T12:03:07.548Z,92.00
2023-05-24T12:05:34.462Z,92.00
2023-05-24T12:08:01.535Z,92.10
2023-05-24T12:10:28.273Z,91.80
2023-05-24T12:12:55.018Z,92.20
2023-05-24T12:15:22.351Z,91.80
2023-05-24T12:17:52.374Z,91.90
2023-05-24T12:20:19.874Z,91.70
2023-05-24T12:22:46.743Z,91.10
2023-05-24T12:25:13.490Z,91.90
2023-05-24T12:27:44.149Z,91.90
2023-05-24T12:30:14.234Z,92.30
2023-05-24T12:32:41.023Z,92.00
2023-05-24T12:35:07.920Z,91.70
2023-05-24T12:37:34.936Z,92.20
2023-05-24T12:40:01.947Z,91.90
2023-05-24T12:42:28.686Z,91.80
2023-05-24T12:44:55.470Z,92.10
2023-05-24T12:47:22.335Z,91.90
2023-05-24T12:49:49.307Z,91.90
2023-05-24T12:52:16.120Z,91.40
2023-05-24T12:54:42.961Z,91.10
2023-05-24T12:57:09.818Z,91.00
2023-05-24T12:59:37.370Z,91.70
2023-05-24T13:02:04.145Z,92.10
2023-05-24T13:04:33.654Z,92.20
2023-05-24T13:07:01.777Z,91.40
2023-05-24T13:09:28.599Z,91.50
2023-05-24T13:11:55.414Z,91.30
2023-05-24T13:14:22.239Z,91.10
2023-05-24T13:16:49.208Z,90.60
2023-05-24T13:19:16.728Z,90.90
2023-05-24T13:21:44.099Z,91.40
2023-05-24T13:24:11.049Z,91.20
2023-05-24T13:26:38.897Z,91.60
2023-05-24T13:31:37.716Z,91.60
2023-05-24T13:34:05.031Z,91.50
2023-05-24T13:36:31.770Z,91.20
2023-05-24T13:39:13.274Z,91.40
2023-05-24T13:41:42.188Z,91.00
2023-05-24T13:44:10.027Z,91.00
2023-05-24T13:46:37.282Z,90.80
2023-05-24T13:49:04.456Z,91.40
2023-05-24T13:51:31.391Z,91.20
2023-05-24T13:53:58.127Z,90.90
2023-05-24T13:56:26.031Z,91.00
2023-05-24T13:58:53.593Z,91.20
2023-05-24T14:01:20.950Z,90.80
2023-05-24T14:03:47.864Z,90.90
2023-05-24T14:06:14.855Z,90.90
2023-05-24T14:08:42.598Z,91.10
2023-05-24T14:11:09.418Z,91.20
2023-05-24T14:16:06.723Z,90.60
2023-05-24T14:18:33.599Z,90.70
2023-05-24T14:21:00.428Z,90.80
2023-05-24T14:23:27.571Z,90.30
2023-05-24T14:25:54.431Z,89.50
2023-05-24T14:28:21.723Z,90.00
2023-05-24T14:30:48.590Z,90.80
2023-05-24T14:33:15.347Z,91.00
2023-05-24T14:35:42.505Z,91.00
2023-05-24T14:38:09.695Z,91.20
2023-05-24T14:40:37.714Z,90.60
2023-05-24T14:43:04.494Z,90.60
2023-05-24T14:45:31.368Z,90.60
2023-05-24T14:47:58.218Z,90.60
2023-05-24T14:50:25.061Z,90.70
2023-05-24T14:52:53.183Z,90.80
2023-05-24T14:55:22.143Z,90.50
2023-05-24T14:57:49.556Z,90.70
2023-05-24T15:00:17.086Z,90.80
2023-05-24T15:02:44.892Z,90.40
2023-05-24T15:05:11.671Z,90.50
2023-05-24T15:07:38.398Z,90.70
2023-05-24T15:10:05.208Z,90.30
2023-05-24T15:12:32.002Z,90.10
2023-05-24T15:14:58.833Z,90.30
2023-05-24T15:17:26.558Z,90.10
2023-05-24T15:19:54.304Z,90.00
2023-05-24T15:22:21.108Z,90.30
2023-05-24T15:24:47.885Z,89.70
2023-05-24T15:27:14.645Z,89.30
2023-05-24T15:29:41.442Z,89.90
2023-05-24T15:32:08.205Z,90.00
2023-05-24T15:34:34.987Z,88.90
2023-05-24T15:37:01.847Z,89.60
2023-05-24T15:39:28.733Z,88.80
2023-05-24T15:41:55.643Z,88.20
2023-05-24T15:44:22.539Z,88.00
2023-05-24T15:46:49.391Z,87.60
2023-05-24T15:49:16.131Z,87.50
2023-05-24T15:54:12.546Z,87.20
2023-05-24T15:56:39.251Z,85.90
2023-05-24T15:59:06.254Z,86.40
2023-05-24T16:01:33.010Z,85.90
2023-05-24T16:03:59.927Z,85.50
2023-05-24T16:06:26.800Z,82.90
2023-05-24T16:08:53.553Z,81.90
2023-05-24T16:11:21.865Z,83.40
2023-05-24T16:13:50.117Z,82.70
2023-05-24T16:16:16.865Z,82.40
2023-05-24T16:18:43.640Z,82.80
2023-05-24T16:21:10.615Z,82.50
2023-05-24T16:23:37.412Z,83.90
2023-05-24T16:26:04.226Z,84.20
2023-05-24T16:28:31.073Z,84.90
2023-05-24T16:30:58.713Z,84.60
2023-05-24T16:33:25.574Z,83.10
2023-05-24T16:35:55.873Z,83.40
2023-05-24T16:38:22.786Z,83.40
2023-05-24T16:40:49.627Z,83.60
2023-05-24T16:43:16.484Z,83.00
2023-05-24T16:45:43.205Z,82.30
2023-05-24T16:48:10.102Z,81.60
2023-05-24T16:50:36.896Z,82.20
2023-05-24T16:53:05.840Z,81.30
2023-05-24T16:55:33.303Z,82.20
2023-05-24T16:58:00.080Z,82.90
2023-05-24T17:00:27.015Z,83.80
2023-05-24T17:02:54.714Z,84.20
2023-05-24T17:05:21.599Z,85.30
2023-05-24T17:07:48.413Z,85.60
2023-05-24T17:10:15.267Z,85.80
2023-05-24T17:12:42.392Z,86.10
2023-05-24T17:15:09.290Z,86.90
2023-05-24T17:17:36.264Z,86.90
2023-05-24T17:20:03.418Z,87.00
2023-05-24T17:22:30.150Z,86.60
2023-05-24T17:24:56.879Z,86.20
2023-05-24T17:27:23.670Z,85.20
2023-05-24T17:29:50.515Z,84.30
2023-05-24T17:32:17.318Z,84.50
2023-05-24T17:34:44.030Z,84.00
2023-05-24T17:37:10.940Z,83.50
2023-05-24T17:39:38.847Z,83.10
2023-05-24T17:42:05.580Z,83.20
2023-05-24T17:44:32.311Z,84.60
2023-05-24T17:46:59.073Z,84.60
2023-05-24T17:49:26.546Z,83.70
2023-05-24T17:51:53.322Z,83.00
2023-05-24T17:54:20.072Z,82.20
2023-05-24T17:56:46.820Z,82.40
2023-05-24T17:59:13.573Z,82.80
2023-05-24T18:01:40.458Z,82.40
2023-05-24T18:04:08.614Z,82.70
2023-05-24T18:06:35.625Z,83.30
2023-05-24T18:09:02.374Z,83.90
2023-05-24T18:11:29.324Z,84.60
2023-05-24T18:13:57.073Z,85.20
2023-05-24T18:16:23.870Z,85.90
2023-05-24T18:18:50.611Z,86.20
2023-05-24T18:21:17.434Z,86.30
2023-05-24T18:23:44.230Z,87.00
2023-05-24T18:26:11.108Z,86.70
2023-05-24T18:28:38.136Z,86.90
2023-05-24T18:31:05.064Z,87.80
2023-05-24T18:33:31.873Z,88.40
2023-05-24T18:35:58.672Z,89.30
2023-05-24T18:38:25.455Z,88.60
2023-05-24T18:40:52.262Z,88.80
2023-05-24T18:43:18.987Z,89.90
2023-05-24T18:45:46.052Z,91.20
2023-05-24T18:48:12.818Z,91.40
2023-05-24T18:50:39.605Z,91.60
2023-05-24T18:53:06.579Z,91.90
2023-05-24T18:55:33.323Z,92.20
2023-05-24T18:58:00.120Z,92.60
2023-05-24T19:00:27.055Z,92.70
2023-05-24T19:02:55.599Z,92.80
2023-05-24T19:05:22.424Z,93.00
2023-05-24T19:07:49.168Z,93.40
2023-05-24T19:10:15.956Z,93.60
2023-05-24T19:12:42.698Z,93.80
2023-05-24T19:15:09.507Z,94.10
2023-05-24T19:17:36.305Z,94.30
2023-05-24T19:20:03.228Z,94.70
2023-05-24T19:22:30.327Z,94.80
2023-05-24T19:24:57.234Z,94.80
2023-05-24T19:27:24.720Z,94.70
2023-05-24T19:29:51.552Z,95.00
2023-05-24T19:32:20.198Z,95.20
2023-05-24T19:34:47.221Z,95.40
2023-05-24T19:37:14.077Z,95.60
2023-05-24T19:39:40.831Z,95.70
2023-05-24T19:42:07.722Z,95.90
2023-05-24T19:44:34.583Z,96.10
2023-05-24T19:47:01.368Z,96.30
2023-05-24T19:49:28.146Z,96.50
2023-05-24T19:51:54.824Z,96.70
2023-05-24T19:54:21.608Z,96.80
2023-05-24T19:56:50.620Z,96.90
2023-05-24T19:59:17.512Z,97.00
2023-05-24T20:01:44.375Z,97.10
2023-05-24T20:04:11.409Z,97.20
2023-05-24T20:06:38.709Z,97.30
2023-05-24T20:09:05.707Z,97.50
2023-05-24T20:11:32.442Z,97.50
2023-05-24T20:14:00.051Z,97.70
2023-05-24T20:16:26.851Z,97.70
2023-05-24T20:18:53.784Z,97.80
2023-05-24T20:21:20.646Z,97.90
2023-05-24T20:23:47.535Z,98.00
2023-05-24T20:26:14.526Z,98.20
2023-05-24T20:28:41.720Z,98.30
2023-05-24T20:31:08.780Z,98.40
2023-05-24T20:33:38.369Z,98.50
2023-05-24T20:36:05.561Z,98.40
2023-05-24T20:38:32.320Z,98.60
2023-05-24T20:40:59.711Z,98.70
2023-05-24T20:43:26.593Z,98.90
2023-05-24T20:45:53.387Z,98.80
2023-05-24T20:48:20.229Z,99.00
2023-05-24T20:50:47.100Z,99.00
2023-05-24T20:53:13.873Z,99.20
2023-05-24T20:55:40.658Z,99.20
2023-05-24T20:58:07.434Z,99.40
2023-05-24T21:00:34.225Z,99.40
2023-05-24T21:03:01.184Z,99.50
2023-05-24T21:05:27.968Z,99.60
2023-05-24T21:07:54.697Z,99.50
2023-05-24T21:10:21.577Z,99.70
2023-05-24T21:12:48.317Z,99.80
2023-05-24T21:15:15.091Z,99.80
2023-05-24T21:17:41.873Z,99.90
2023-05-24T21:20:09.005Z,99.90
2023-05-24T21:22:35.857Z,99.90
2023-05-24T21:25:02.640Z,99.90
2023-05-24T21:27:29.474Z,99.90
2023-05-24T21:29:56.328Z,99.90
2023-05-24T21:32:23.035Z,99.90
2023-05-24T21:34:50.018Z,99.90
2023-05-24T21:37:17.547Z,99.90
2023-05-24T21:39:44.647Z,99.90
2023-05-24T21:42:11.436Z,99.90
2023-05-24T21:44:38.228Z,99.90
2023-05-24T21:47:05.152Z,99.90
2023-05-24T21:49:31.929Z,99.90
2023-05-24T21:51:58.694Z,99.90
2023-05-24T21:54:25.779Z,99.90
2023-05-24T21:56:52.518Z,99.90
2023-05-24T21:59:21.341Z,99.90
2023-05-24T22:01:48.706Z,99.90
2023-05-24T22:04:15.775Z,99.90
2023-05-24T22:06:44.836Z,99.90
2023-05-24T22:09:11.697Z,99.90
2023-05-24T22:11:38.517Z,99.90
2023-05-24T22:14:05.414Z,99.90
2023-05-24T22:16:32.162Z,99.90
2023-05-24T22:19:00.954Z,99.90
2023-05-24T22:21:28.386Z,99.90
2023-05-24T22:23:55.239Z,99.90
2023-05-24T22:26:22.777Z,99.90
2023-05-24T22:28:50.840Z,99.90
2023-05-24T22:31:18.162Z,99.90
2023-05-24T22:33:45.077Z,99.90
2023-05-24T22:36:13.205Z,99.90
2023-05-24T22:38:40.071Z,99.90
2023-05-24T22:41:06.858Z,99.90
2023-05-24T22:43:33.696Z,99.90
2023-05-24T22:46:00.602Z,99.90
2023-05-24T22:48:27.422Z,99.90
2023-05-24T22:50:57.193Z,99.90
2023-05-24T22:53:24.098Z,99.90
2023-05-24T22:55:50.850Z,99.90
2023-05-24T22:58:17.692Z,99.90
2023-05-24T23:00:44.432Z,99.90
2023-05-24T23:03:11.958Z,99.90
2023-05-24T23:05:41.489Z,99.90
2023-05-24T23:08:10.122Z,99.90
2023-05-24T23:10:36.878Z,99.90
2023-05-24T23:13:04.246Z,99.90
2023-05-24T23:15:32.003Z,99.90
2023-05-24T23:17:58.906Z,99.90
2023-05-24T23:20:26.016Z,99.90
2023-05-24T23:22:53.055Z,99.90
2023-05-24T23:25:19.868Z,99.90
2023-05-24T23:27:46.753Z,99.90
2023-05-24T23:30:13.484Z,99.90
2023-05-24T23:32:40.322Z,99.90
2023-05-24T23:35:07.080Z,99.90
2023-05-24T23:37:33.849Z,99.90
2023-05-24T23:40:06.251Z,99.90
2023-05-24T23:42:33.135Z,99.90
2023-05-24T23:44:59.961Z,99.90
2023-05-24T23:47:26.773Z,99.90
2023-05-24T23:49:53.483Z,99.90
2023-05-24T23:52:20.518Z,99.90
2023-05-24T23:54:47.259Z,99.90
2023-05-24T23:57:14.828Z,99.90
2023-05-24T23:59:41.611Z,99.90
